Time;durP1;ratioP1;P1;durP2;ratioP2;P2;SDS_P1;SDS_P2;PMS_P1;PMS_P2;Temp;Humidity;BMP_temperature;BMP_pressure;BME280_temperature;BME280_humidity;BME280_pressure;Samples;Min_cycle;Max_cycle;Signal;HPM_P1;HPM_P2
2022/03/15 00:00:34;;;;;;;33.13;20.30;;;;;;;4.99;77.06;102724.50;5095561;28;20048;-67
2022/03/15 00:03:02;;;;;;;37.22;20.85;;;;;;;4.94;77.01;102720.91;5095049;28;20123;-67
2022/03/15 00:05:29;;;;;;;36.17;18.85;;;;;;;4.90;77.05;102725.19;5100790;28;20036;-67
2022/03/15 00:07:58;;;;;;;37.92;19.48;;;;;;;4.87;77.02;102716.41;5097644;28;20114;-67
2022/03/15 00:10:26;;;;;;;34.80;19.58;;;;;;;4.84;77.18;102717.19;5092801;28;20044;-69
2022/03/15 00:12:55;;;;;;;33.47;19.13;;;;;;;4.84;77.24;102721.53;5097341;28;20052;-69
2022/03/15 00:15:24;;;;;;;29.83;17.83;;;;;;;4.82;77.30;102719.78;5095406;27;20048;-69
2022/03/15 00:17:52;;;;;;;36.88;19.20;;;;;;;4.82;77.46;102722.38;5095924;28;20073;-69
2022/03/15 00:20:22;;;;;;;37.95;19.00;;;;;;;4.85;77.51;102728.53;5099219;27;20520;-70
2022/03/15 00:22:51;;;;;;;31.80;18.55;;;;;;;4.90;77.42;102719.97;5098362;27;20189;-69
2022/03/15 00:25:19;;;;;;;39.70;20.48;;;;;;;4.95;77.77;102712.22;5099573;27;20498;-69
2022/03/15 00:27:50;;;;;;;34.10;18.77;;;;;;;4.98;77.75;102713.16;5095108;28;20532;-69
2022/03/15 00:30:20;;;;;;;32.88;18.63;;;;;;;5.04;77.64;102711.53;5106552;27;20044;-68
2022/03/15 00:32:51;;;;;;;32.45;17.70;;;;;;;5.08;77.53;102705.53;5093289;28;20043;-69
2022/03/15 00:35:20;;;;;;;31.92;17.55;;;;;;;5.10;77.52;102702.09;5094281;28;20221;-70
2022/03/15 00:37:51;;;;;;;32.25;17.95;;;;;;;5.15;77.74;102702.19;5091873;28;20037;-69
2022/03/15 00:40:20;;;;;;;28.90;16.38;;;;;;;5.18;77.54;102693.56;5116210;27;20047;-69
2022/03/15 00:42:51;;;;;;;28.98;15.73;;;;;;;5.22;77.99;102700.59;5094166;28;20040;-69
2022/03/15 00:45:28;;;;;;;25.80;14.73;;;;;;;5.28;77.99;102700.75;5091259;28;20464;-71
2022/03/15 00:47:58;;;;;;;23.20;13.00;;;;;;;5.35;78.26;102704.34;5087728;28;20055;-70
2022/03/15 00:50:27;;;;;;;23.25;13.82;;;;;;;5.39;77.95;102704.47;5100097;28;20048;-68
2022/03/15 00:52:56;;;;;;;26.35;13.82;;;;;;;5.47;78.13;102709.00;5090744;28;20510;-67
2022/03/15 00:55:23;;;;;;;18.90;12.80;;;;;;;5.50;77.78;102707.31;5098259;27;20050;-70
2022/03/15 00:57:51;;;;;;;21.45;12.73;;;;;;;5.54;77.75;102703.94;5091086;28;20502;-70
2022/03/15 01:00:20;;;;;;;22.50;12.98;;;;;;;5.56;77.43;102710.03;5109465;27;20044;-70
2022/03/15 01:02:48;;;;;;;23.55;12.35;;;;;;;5.58;77.36;102702.25;5091080;28;20049;-69
2022/03/15 01:05:16;;;;;;;21.48;11.82;;;;;;;5.60;77.41;102692.66;5097142;28;20084;-70
2022/03/15 01:07:43;;;;;;;24.02;12.57;;;;;;;5.62;77.29;102690.97;5098990;27;20538;-69
2022/03/15 01:10:11;;;;;;;21.58;11.25;;;;;;;5.62;77.20;102687.50;5087773;28;20048;-69
2022/03/15 01:12:38;;;;;;;23.60;12.30;;;;;;;5.63;77.27;102690.13;5092001;28;20125;-68
2022/03/15 01:15:07;;;;;;;21.13;11.73;;;;;;;5.64;77.08;102696.25;5091611;28;20486;-66
2022/03/15 01:17:35;;;;;;;17.85;11.73;;;;;;;5.65;76.93;102698.00;5091728;28;20532;-68
2022/03/15 01:20:05;;;;;;;20.38;11.80;;;;;;;5.65;76.82;102698.91;5095892;28;20510;-67
2022/03/15 01:22:34;;;;;;;20.75;11.95;;;;;;;5.67;76.93;102693.69;5089243;28;20048;-67
2022/03/15 01:25:04;;;;;;;23.63;11.45;;;;;;;5.66;76.72;102690.19;5091232;28;20040;-66
2022/03/15 01:27:31;;;;;;;19.85;11.20;;;;;;;5.67;76.60;102689.34;5091688;28;20489;-67
2022/03/15 01:29:59;;;;;;;18.85;10.90;;;;;;;5.67;76.71;102680.59;5093399;28;20079;-66
2022/03/15 01:32:26;;;;;;;18.75;11.75;;;;;;;5.68;76.66;102683.25;5110275;27;20098;-67
2022/03/15 01:34:53;;;;;;;18.25;10.90;;;;;;;5.69;76.55;102677.19;5093057;27;20048;-67
2022/03/15 01:37:20;;;;;;;21.42;11.68;;;;;;;5.69;76.33;102677.19;5114040;27;20094;-69
2022/03/15 01:39:48;;;;;;;23.23;11.45;;;;;;;5.70;76.36;102680.66;5094257;28;20590;-69
2022/03/15 01:42:15;;;;;;;20.73;11.65;;;;;;;5.70;76.33;102681.53;5094219;28;20090;-68
2022/03/15 01:44:47;;;;;;;21.58;12.05;;;;;;;5.69;76.02;102671.94;5102953;28;20047;-68
2022/03/15 01:47:16;;;;;;;20.55;11.43;;;;;;;5.66;76.23;102669.25;5087120;28;20202;-68
2022/03/15 01:49:44;;;;;;;18.20;11.52;;;;;;;5.64;76.15;102667.47;5107673;27;20123;-69
2022/03/15 01:52:15;;;;;;;24.98;11.60;;;;;;;5.61;76.07;102657.81;5090880;28;20052;-69
2022/03/15 01:54:44;;;;;;;23.52;12.40;;;;;;;5.58;75.84;102653.41;5091680;28;20618;-69
2022/03/15 01:57:14;;;;;;;19.55;12.13;;;;;;;5.56;75.91;102655.09;5121774;27;20102;-67
2022/03/15 01:59:42;;;;;;;19.63;11.05;;;;;;;5.52;75.92;102653.28;5108490;27;20055;-68
2022/03/15 02:02:11;;;;;;;21.95;11.52;;;;;;;5.50;75.94;102654.09;5092141;28;20044;-67
2022/03/15 02:04:38;;;;;;;19.67;11.35;;;;;;;5.48;76.12;102650.59;5093864;28;20460;-67
2022/03/15 02:07:12;;;;;;;20.58;11.13;;;;;;;5.46;76.05;102650.53;5093682;28;20043;-68
2022/03/15 02:09:40;;;;;;;19.95;10.75;;;;;;;5.47;76.01;102654.06;5109475;27;20132;-67
2022/03/15 02:12:08;;;;;;;20.40;11.35;;;;;;;5.46;75.97;102647.06;5091455;28;20044;-67
2022/03/15 02:14:36;;;;;;;17.88;11.40;;;;;;;5.45;76.05;102643.53;5095423;28;20045;-66
2022/03/15 02:17:04;;;;;;;18.95;11.70;;;;;;;5.48;76.13;102647.97;5092696;27;20091;-66
2022/03/15 02:19:36;;;;;;;23.00;11.57;;;;;;;5.47;76.04;102651.44;5098817;28;20041;-65
2022/03/15 02:22:04;;;;;;;18.35;10.60;;;;;;;5.46;75.98;102641.81;5093980;28;20190;-65
2022/03/15 02:24:32;;;;;;;18.55;11.13;;;;;;;5.47;75.92;102646.22;5095007;28;20040;-66
2022/03/15 02:27:02;;;;;;;18.33;10.98;;;;;;;5.44;75.79;102639.19;5092209;28;20094;-65
2022/03/15 02:29:29;;;;;;;15.93;10.85;;;;;;;5.41;75.75;102639.97;5090370;28;20036;-66
2022/03/15 02:31:57;;;;;;;17.67;10.60;;;;;;;5.42;76.00;102640.88;5090751;28;20236;-66
2022/03/15 02:34:26;;;;;;;17.60;10.68;;;;;;;5.41;76.02;102645.22;5098059;28;20474;-67
2022/03/15 02:36:53;;;;;;;19.60;10.98;;;;;;;5.42;76.15;102641.75;5094393;27;20067;-67
2022/03/15 02:39:20;;;;;;;21.13;12.00;;;;;;;5.40;76.01;102634.72;5103646;27;20048;-67
2022/03/15 02:41:48;;;;;;;17.35;10.95;;;;;;;5.37;76.16;102637.28;5095909;28;20048;-67
2022/03/15 02:44:19;;;;;;;20.55;11.35;;;;;;;5.34;76.06;102629.38;5090413;27;20064;-71
2022/03/15 02:46:50;;;;;;;20.08;11.38;;;;;;;5.32;76.13;102621.50;5089154;28;20120;-70
2022/03/15 02:49:21;;;;;;;20.60;11.43;;;;;;;5.31;76.23;102624.09;5095943;28;20044;-69
2022/03/15 02:51:48;;;;;;;18.05;11.30;;;;;;;5.31;76.45;102622.34;5092992;28;20049;-69
2022/03/15 02:54:16;;;;;;;18.83;11.18;;;;;;;5.32;76.27;102618.00;5085531;27;20565;-69
2022/03/15 02:56:45;;;;;;;17.23;10.43;;;;;;;5.32;76.40;102607.56;5087201;28;20051;-68
2022/03/15 02:59:14;;;;;;;19.58;11.05;;;;;;;5.29;76.32;102614.47;5090760;28;20041;-70
2022/03/15 03:01:45;;;;;;;16.75;10.85;;;;;;;5.26;76.19;102610.91;5090811;28;20067;-69
2022/03/15 03:04:18;;;;;;;16.45;10.75;;;;;;;5.20;76.16;102609.06;5088638;28;20580;-69
2022/03/15 03:06:45;;;;;;;16.42;10.75;;;;;;;5.15;76.12;102595.00;5092696;28;20826;-69
2022/03/15 03:09:13;;;;;;;22.02;11.00;;;;;;;5.11;76.37;102607.13;5095386;27;20048;-69
2022/03/15 03:11:40;;;;;;;19.65;11.10;;;;;;;5.07;76.60;102604.41;5095551;28;20056;-69
2022/03/15 03:14:12;;;;;;;21.88;11.55;;;;;;;5.04;76.30;102600.03;5091431;28;20387;-69
2022/03/15 03:16:40;;;;;;;20.10;11.98;;;;;;;5.01;76.64;102596.47;5090467;28;20481;-69
2022/03/15 03:19:08;;;;;;;28.08;12.80;;;;;;;4.96;76.65;102583.31;5088231;28;20041;-69
2022/03/15 03:21:36;;;;;;;18.73;12.07;;;;;;;4.95;76.69;102595.47;5093073;28;20044;-68
2022/03/15 03:24:09;;;;;;;18.52;11.15;;;;;;;4.94;76.62;102592.84;5093001;28;20084;-69
2022/03/15 03:26:39;;;;;;;20.73;11.93;;;;;;;4.94;76.83;102590.22;5099019;28;20052;-68
2022/03/15 03:29:11;;;;;;;21.05;11.55;;;;;;;4.92;77.15;102586.69;5101554;27;20048;-69
2022/03/15 03:31:42;;;;;;;17.60;11.35;;;;;;;4.90;77.19;102591.88;5093839;28;20037;-68
2022/03/15 03:34:11;;;;;;;22.13;11.75;;;;;;;4.93;77.27;102593.69;5100496;28;20052;-69
2022/03/15 03:36:39;;;;;;;20.35;12.50;;;;;;;4.92;77.26;102582.34;5098538;28;20064;-68
2022/03/15 03:39:25;;;;;;;20.48;12.30;;;;;;;4.91;77.14;102580.59;5104572;27;20505;-69
2022/03/15 03:41:53;;;;;;;17.65;11.68;;;;;;;4.90;77.28;102578.81;5101691;28;20040;-69
2022/03/15 03:44:21;;;;;;;20.40;10.90;;;;;;;4.89;77.35;102584.00;5100395;27;20490;-69
2022/03/15 03:46:48;;;;;;;18.58;11.70;;;;;;;4.87;77.33;102581.34;5094562;28;20043;-70
2022/03/15 03:49:15;;;;;;;21.52;12.18;;;;;;;4.83;77.40;102574.31;5093547;28;20047;-69
2022/03/15 03:51:43;;;;;;;18.90;11.57;;;;;;;4.82;77.46;102586.50;5092907;28;20037;-69
2022/03/15 03:54:10;;;;;;;24.13;11.65;;;;;;;4.80;77.61;102582.09;5102093;28;20079;-68
2022/03/15 03:56:37;;;;;;;22.90;11.70;;;;;;;4.79;77.53;102578.56;5094760;28;20123;-67
2022/03/15 03:59:06;;;;;;;21.92;12.18;;;;;;;4.77;77.63;102576.78;5095956;28;20054;-68
2022/03/15 04:01:33;;;;;;;20.38;11.32;;;;;;;4.76;77.69;102570.69;5094900;28;20072;-67
2022/03/15 04:04:05;;;;;;;20.67;11.15;;;;;;;4.74;77.84;102575.00;5098610;27;20045;-67
2022/03/15 04:06:33;;;;;;;20.67;11.73;;;;;;;4.76;77.80;102577.63;5093751;28;20436;-68
2022/03/15 04:09:02;;;;;;;19.42;12.05;;;;;;;4.77;77.86;102580.28;5097103;28;20528;-70
2022/03/15 04:11:31;;;;;;;19.52;11.57;;;;;;;4.76;77.83;102581.16;5114404;27;20039;-69
2022/03/15 04:13:59;;;;;;;19.63;12.25;;;;;;;4.78;77.85;102587.25;5095721;28;20831;-68
2022/03/15 04:16:27;;;;;;;21.98;12.20;;;;;;;4.76;77.94;102586.38;5094435;28;20040;-66
2022/03/15 04:18:55;;;;;;;22.40;11.60;;;;;;;4.75;77.79;102582.00;5092299;28;20050;-66
2022/03/15 04:21:24;;;;;;;18.98;11.68;;;;;;;4.72;77.86;102576.69;5098789;27;20048;-66
2022/03/15 04:23:54;;;;;;;19.45;11.57;;;;;;;4.71;77.93;102574.91;5096205;28;20068;-67
2022/03/15 04:26:22;;;;;;;21.98;11.93;;;;;;;4.71;78.21;102577.53;5096387;28;20053;-66
2022/03/15 04:28:50;;;;;;;20.08;11.40;;;;;;;4.70;77.87;102585.34;5096813;28;20510;-66
2022/03/15 04:31:18;;;;;;;20.70;11.15;;;;;;;4.69;78.25;102581.84;5093085;28;20070;-69
2022/03/15 04:33:46;;;;;;;18.67;11.15;;;;;;;4.70;77.98;102587.97;5101638;28;20087;-70
2022/03/15 04:36:13;;;;;;;27.88;12.48;;;;;;;4.69;78.16;102591.41;5094830;28;20041;-69
2022/03/15 04:38:43;;;;;;;17.35;11.02;;;;;;;4.67;78.17;102583.56;5094449;28;20047;-69
2022/03/15 04:41:12;;;;;;;18.75;10.90;;;;;;;4.66;78.09;102580.03;5112706;27;20037;-67
2022/03/15 04:43:39;;;;;;;22.15;11.38;;;;;;;4.71;78.32;102576.66;5094932;28;20127;-66
2022/03/15 04:46:07;;;;;;;19.80;11.60;;;;;;;4.73;78.38;102573.22;5094805;28;20523;-67
2022/03/15 04:48:35;;;;;;;15.57;10.10;;;;;;;4.74;78.35;102571.47;5097518;28;20036;-67
2022/03/15 04:51:06;;;;;;;16.15;11.13;;;;;;;4.76;78.15;102577.63;5091766;28;20049;-67
2022/03/15 04:53:33;;;;;;;20.48;10.82;;;;;;;4.78;78.04;102574.19;5096221;28;20115;-68
2022/03/15 04:56:00;;;;;;;18.27;11.02;;;;;;;4.80;78.15;102561.19;5091811;28;20814;-67
2022/03/15 04:58:27;;;;;;;18.40;11.63;;;;;;;4.81;77.92;102561.19;5096031;28;20476;-69
2022/03/15 05:00:54;;;;;;;17.63;10.73;;;;;;;4.84;78.06;102562.13;5092909;27;20040;-68
2022/03/15 05:03:22;;;;;;;17.95;10.50;;;;;;;4.86;78.19;102555.19;5096025;28;20040;-69
2022/03/15 05:05:49;;;;;;;18.85;10.35;;;;;;;4.90;78.18;102557.91;5092665;27;20042;-68
2022/03/15 05:08:17;;;;;;;18.42;10.63;;;;;;;4.93;77.90;102560.59;5091503;28;20036;-68
2022/03/15 05:13:31;;;;;;;18.40;11.00;;;;;;;4.94;77.92;102553.63;5096901;28;20047;-68
2022/03/15 05:15:58;;;;;;;24.02;10.30;;;;;;;4.95;78.17;102550.16;5095757;28;20049;-68
2022/03/15 05:18:25;;;;;;;17.13;10.27;;;;;;;4.94;77.70;102549.25;5095266;28;20036;-68
2022/03/15 05:20:52;;;;;;;17.65;10.32;;;;;;;4.96;77.89;102544.09;5096009;27;20123;-69
2022/03/15 05:23:19;;;;;;;18.88;10.88;;;;;;;4.97;77.89;102544.09;5103675;27;20178;-69
2022/03/15 05:25:46;;;;;;;16.00;10.68;;;;;;;4.99;77.77;102549.34;5094383;27;20033;-70
2022/03/15 05:28:14;;;;;;;24.40;10.90;;;;;;;4.98;77.67;102550.25;5095515;28;20043;-71
2022/03/15 05:30:41;;;;;;;23.60;10.00;;;;;;;4.99;77.67;102554.59;5096925;28;20056;-69
2022/03/15 05:33:08;;;;;;;19.80;10.23;;;;;;;5.01;77.71;102552.03;5095376;28;21680;-68
2022/03/15 05:35:41;;;;;;;22.52;10.63;;;;;;;5.02;77.74;102546.81;5090716;28;21179;-72
2022/03/15 05:38:09;;;;;;;16.50;10.38;;;;;;;5.04;77.86;102555.56;5095045;28;20559;-71
2022/03/15 05:40:36;;;;;;;20.13;11.02;;;;;;;5.07;77.59;102554.75;5091995;28;20037;-71
2022/03/15 05:43:04;;;;;;;19.42;9.82;;;;;;;5.07;77.70;102549.53;5090961;27;20040;-71
2022/03/15 05:45:32;;;;;;;18.02;10.77;;;;;;;5.08;77.61;102549.56;5089869;28;20037;-71
2022/03/15 05:48:00;;;;;;;17.15;9.95;;;;;;;5.08;77.75;102546.97;5091594;28;20782;-71
2022/03/15 05:50:28;;;;;;;19.95;10.27;;;;;;;5.09;77.88;102540.84;5091781;28;20033;-70
2022/03/15 05:52:56;;;;;;;21.95;11.38;;;;;;;5.09;77.77;102543.47;5091595;28;20072;-70
2022/03/15 05:55:25;;;;;;;19.90;11.65;;;;;;;5.10;77.74;102539.13;5091552;28;20044;-72
2022/03/15 05:57:52;;;;;;;17.70;10.23;;;;;;;5.08;77.61;102538.22;5090505;28;20041;-69
2022/03/15 06:00:20;;;;;;;18.27;10.98;;;;;;;5.08;77.68;102536.50;5091225;28;20080;-69
2022/03/15 06:02:47;;;;;;;17.27;10.35;;;;;;;5.10;77.78;102540.00;5091521;28;20095;-68
2022/03/15 06:05:19;;;;;;;20.92;10.93;;;;;;;5.11;77.58;102533.06;5089651;28;20129;-69
2022/03/15 06:07:50;;;;;;;20.45;10.27;;;;;;;5.09;77.67;102521.69;5092025;28;20043;-69
2022/03/15 06:10:23;;;;;;;21.52;11.32;;;;;;;5.12;77.51;102545.28;5089908;28;20052;-70
2022/03/15 06:12:51;;;;;;;19.67;11.03;;;;;;;5.10;77.43;102539.13;5091482;28;20107;-70
2022/03/15 06:15:19;;;;;;;17.05;10.30;;;;;;;5.10;77.66;102526.06;5088697;28;20041;-70
2022/03/15 06:17:52;;;;;;;17.38;10.02;;;;;;;5.11;77.85;102530.44;5090293;28;20049;-71
2022/03/15 06:20:19;;;;;;;19.98;10.57;;;;;;;5.13;77.90;102532.22;5091465;28;20098;-71
2022/03/15 06:22:49;;;;;;;19.35;10.43;;;;;;;5.16;77.98;102538.38;5091135;28;20757;-70
2022/03/15 06:25:22;;;;;;;18.67;10.60;;;;;;;5.17;77.87;102534.91;5091210;28;20045;-69
2022/03/15 06:27:50;;;;;;;16.67;9.77;;;;;;;5.22;77.96;102528.03;5106293;28;20056;-70
2022/03/15 06:30:18;;;;;;;19.35;9.77;;;;;;;5.29;77.77;102535.16;5090788;28;20823;-70
2022/03/15 06:32:46;;;;;;;19.42;9.80;;;;;;;5.32;77.54;102529.09;5090393;28;20166;-69
2022/03/15 06:35:13;;;;;;;17.73;9.45;;;;;;;5.32;77.40;102529.97;5090036;28;20102;-69
2022/03/15 06:37:45;;;;;;;15.27;9.25;;;;;;;5.36;77.58;102531.78;5090369;28;20048;-68
2022/03/15 06:40:15;;;;;;;17.40;8.70;;;;;;;5.39;77.50;102525.72;5091347;28;20041;-70
2022/03/15 06:42:44;;;;;;;16.83;9.85;;;;;;;5.41;77.46;102527.50;5091023;28;20040;-70
2022/03/15 06:45:11;;;;;;;19.52;9.27;;;;;;;5.44;77.38;102518.84;5090046;28;20050;-69
2022/03/15 06:47:40;;;;;;;17.80;9.27;;;;;;;5.48;77.34;102519.78;5087690;28;20035;-69
2022/03/15 06:50:09;;;;;;;13.75;8.77;;;;;;;5.50;77.28;102524.19;5087224;28;20043;-69
2022/03/15 06:52:37;;;;;;;23.58;9.32;;;;;;;5.54;77.20;102514.66;5093586;28;20044;-70
2022/03/15 06:55:08;;;;;;;17.42;9.30;;;;;;;5.57;77.21;102507.72;5092216;27;20044;-70
2022/03/15 06:57:36;;;;;;;16.85;8.55;;;;;;;5.59;77.10;102511.25;5096184;28;20091;-68
2022/03/15 07:00:11;;;;;;;13.73;8.25;;;;;;;5.65;76.95;102520.06;5092249;28;20052;-68
2022/03/15 07:02:41;;;;;;;18.67;8.30;;;;;;;5.68;76.77;102507.03;5095424;28;20041;-68
2022/03/15 07:05:09;;;;;;;14.93;8.63;;;;;;;5.72;76.71;102511.47;5099162;28;20053;-68
2022/03/15 07:07:38;;;;;;;16.30;8.02;;;;;;;5.77;76.82;102509.81;5097907;28;20075;-68
2022/03/15 07:10:07;;;;;;;16.77;7.72;;;;;;;5.79;76.41;102497.63;5093808;28;20032;-69
2022/03/15 07:12:35;;;;;;;15.23;8.43;;;;;;;5.84;76.60;102502.94;5094323;28;20173;-67
2022/03/15 07:15:05;;;;;;;17.23;8.52;;;;;;;5.88;76.34;102505.63;5093745;28;20114;-69
2022/03/15 07:17:32;;;;;;;13.95;8.15;;;;;;;5.95;76.38;102503.13;5094520;28;20044;-68
2022/03/15 07:20:00;;;;;;;12.52;7.80;;;;;;;5.97;76.27;102497.03;5094186;28;20132;-69
2022/03/15 07:22:27;;;;;;;13.05;7.47;;;;;;;6.02;76.32;102502.38;5094400;28;20102;-68
2022/03/15 07:24:55;;;;;;;16.48;7.93;;;;;;;6.08;76.15;102497.22;5093721;28;21001;-69
2022/03/15 07:27:22;;;;;;;13.40;8.38;;;;;;;6.16;75.96;102487.75;5094145;28;20056;-69
2022/03/15 07:29:49;;;;;;;13.50;7.75;;;;;;;6.22;75.91;102487.84;5091902;28;20535;-69
2022/03/15 07:32:16;;;;;;;12.77;7.68;;;;;;;6.27;75.69;102477.44;5088253;28;20589;-70
2022/03/15 07:34:43;;;;;;;15.15;7.63;;;;;;;6.34;75.52;102481.88;5093941;28;20115;-69
2022/03/15 07:37:11;;;;;;;17.45;7.72;;;;;;;6.39;75.51;102484.56;5093001;28;20536;-69
2022/03/15 07:39:41;;;;;;;13.32;7.60;;;;;;;6.44;75.31;102482.91;5094151;28;20041;-69
2022/03/15 07:42:08;;;;;;;11.27;6.97;;;;;;;6.49;75.18;102483.84;5093200;28;20047;-69
2022/03/15 07:44:35;;;;;;;13.02;6.70;;;;;;;6.54;75.06;102478.66;5093618;28;20090;-70
2022/03/15 07:47:09;;;;;;;15.23;7.47;;;;;;;6.61;75.01;102474.38;5093294;28;20048;-69
2022/03/15 07:49:37;;;;;;;12.38;7.05;;;;;;;6.65;74.98;102476.19;5092609;28;20055;-70
2022/03/15 07:52:10;;;;;;;15.10;7.10;;;;;;;6.71;74.82;102472.75;5092087;28;20051;-70
2022/03/15 07:54:37;;;;;;;11.02;6.65;;;;;;;6.74;74.48;102473.66;5092227;28;20041;-69
2022/03/15 07:57:07;;;;;;;15.32;7.32;;;;;;;6.79;74.38;102471.97;5087300;28;20426;-69
2022/03/15 07:59:35;;;;;;;12.45;6.68;;;;;;;6.83;74.30;102467.63;5091973;28;20471;-70
2022/03/15 08:02:03;;;;;;;15.25;6.95;;;;;;;6.88;74.25;102479.06;5092611;28;20041;-70
2022/03/15 08:04:30;;;;;;;15.02;6.72;;;;;;;6.97;74.16;102478.25;5093271;28;20536;-69
2022/03/15 08:06:57;;;;;;;13.18;6.63;;;;;;;7.05;74.00;102480.97;5093131;28;20064;-69
2022/03/15 08:09:24;;;;;;;13.27;7.30;;;;;;;7.10;73.82;102472.28;5093568;28;20051;-69
2022/03/15 08:11:51;;;;;;;14.50;6.95;;;;;;;7.16;73.62;102466.25;5093012;28;20068;-69
2022/03/15 08:14:19;;;;;;;15.48;7.30;;;;;;;7.19;73.69;102463.66;5093568;28;20509;-69
2022/03/15 08:16:47;;;;;;;14.48;6.63;;;;;;;7.26;73.37;102462.84;5093815;28;20045;-70
2022/03/15 08:19:14;;;;;;;18.00;6.85;;;;;;;7.29;73.00;102469.84;5093671;28;20041;-69
2022/03/15 08:21:41;;;;;;;15.95;7.28;;;;;;;7.29;73.12;102457.63;5093351;28;20044;-70
2022/03/15 08:24:09;;;;;;;13.50;6.63;;;;;;;7.35;72.66;102451.56;5093239;28;20190;-69
2022/03/15 08:26:37;;;;;;;10.82;6.15;;;;;;;7.37;72.71;102454.19;5092887;28;20049;-69
2022/03/15 08:29:06;;;;;;;15.77;6.50;;;;;;;7.42;72.50;102461.25;5092193;28;20076;-69
2022/03/15 08:31:34;;;;;;;10.63;6.40;;;;;;;7.46;72.49;102455.16;5093318;28;20041;-69
2022/03/15 08:34:01;;;;;;;14.20;7.05;;;;;;;7.50;72.39;102439.41;5093093;28;20742;-69
2022/03/15 08:36:28;;;;;;;15.75;6.78;;;;;;;7.55;72.36;102449.09;5093111;28;20044;-69
2022/03/15 08:38:56;;;;;;;18.52;6.90;;;;;;;7.64;72.05;102453.53;5093442;28;20040;-69
2022/03/15 08:41:23;;;;;;;13.75;6.32;;;;;;;7.70;72.06;102444.84;5093236;28;20075;-69
2022/03/15 08:43:50;;;;;;;11.05;6.40;;;;;;;7.78;71.78;102445.75;5092754;28;20040;-69
2022/03/15 08:46:17;;;;;;;15.88;6.57;;;;;;;7.83;71.29;102437.91;5093014;28;20080;-69
2022/03/15 08:48:45;;;;;;;13.52;6.30;;;;;;;7.88;71.30;102441.47;5094043;28;20043;-68
2022/03/15 08:51:12;;;;;;;14.23;6.88;;;;;;;7.96;71.44;102441.50;5092937;28;20490;-69
2022/03/15 08:53:39;;;;;;;12.98;6.28;;;;;;;8.02;71.22;102437.16;5093198;28;20056;-69
2022/03/15 08:56:08;;;;;;;10.88;5.90;;;;;;;8.08;71.07;102438.94;5092303;28;20056;-69
2022/03/15 08:58:35;;;;;;;10.70;6.70;;;;;;;8.14;70.94;102438.97;5092793;28;20045;-69
2022/03/15 09:01:02;;;;;;;19.90;6.28;;;;;;;8.22;70.82;102432.03;5093442;28;20033;-69
2022/03/15 09:03:49;;;;;;;14.00;6.47;;;;;;;8.28;70.70;102439.06;5092886;28;20041;-69
2022/03/15 09:06:16;;;;;;;15.02;6.38;;;;;;;8.34;70.48;102428.56;5092798;28;21018;-69
2022/03/15 09:08:43;;;;;;;15.88;6.30;;;;;;;8.43;70.29;102424.22;5092962;28;20049;-69
2022/03/15 09:11:10;;;;;;;12.10;6.00;;;;;;;8.52;70.24;102430.44;5092642;28;20040;-69
2022/03/15 09:13:37;;;;;;;13.30;6.03;;;;;;;8.62;69.80;102420.81;5091986;28;20055;-69
2022/03/15 09:16:12;;;;;;;11.50;6.20;;;;;;;8.70;69.53;102418.22;5092708;28;20036;-69
2022/03/15 09:18:39;;;;;;;12.40;7.07;;;;;;;8.83;69.51;102412.13;5090994;28;20045;-69
2022/03/15 09:21:06;;;;;;;14.10;6.65;;;;;;;8.98;69.27;102407.75;5093004;28;20041;-70
2022/03/15 09:23:33;;;;;;;13.50;6.88;;;;;;;9.08;69.01;102414.78;5092388;28;20036;-69
2022/03/15 09:26:01;;;;;;;20.42;6.97;;;;;;;9.19;68.70;102403.38;5092002;28;20055;-69
2022/03/15 09:28:31;;;;;;;15.77;6.95;;;;;;;9.32;68.53;102400.75;5092273;28;20036;-69
2022/03/15 09:30:58;;;;;;;13.07;6.60;;;;;;;9.43;68.28;102397.25;5090510;28;20045;-70
2022/03/15 09:33:25;;;;;;;13.52;7.38;;;;;;;9.52;67.69;102393.72;5092453;28;20036;-69
2022/03/15 09:35:52;;;;;;;13.30;6.43;;;;;;;9.57;67.06;102394.59;5091696;28;20040;-69
2022/03/15 09:38:21;;;;;;;15.18;7.18;;;;;;;9.60;66.73;102390.22;5091450;28;20047;-69
2022/03/15 09:40:52;;;;;;;14.85;6.97;;;;;;;9.64;66.74;102391.09;5091064;28;20494;-69
2022/03/15 09:43:24;;;;;;;15.38;7.00;;;;;;;9.71;66.68;102390.19;5091274;28;20053;-70
2022/03/15 09:45:52;;;;;;;13.68;6.45;;;;;;;9.79;66.52;102395.44;5091767;28;20094;-69
2022/03/15 09:48:46;;;;;;;13.48;6.55;;;;;;;9.93;66.56;102385.75;5091852;28;20279;-69
2022/03/15 09:51:17;;;;;;;14.60;6.78;;;;;;;10.05;66.09;102382.22;5092179;28;20051;-70
2022/03/15 09:53:47;;;;;;;14.90;7.50;;;;;;;10.16;65.71;102379.53;5092083;28;20485;-70
2022/03/15 09:56:16;;;;;;;12.80;6.25;;;;;;;10.28;65.54;102377.72;5091086;28;20043;-70
2022/03/15 09:58:43;;;;;;;13.77;6.07;;;;;;;10.35;64.89;102372.41;5091242;28;20048;-69
2022/03/15 10:01:18;;;;;;;11.57;5.80;;;;;;;10.42;64.53;102373.31;5086640;28;20047;-69
2022/03/15 10:03:46;;;;;;;13.18;6.40;;;;;;;10.48;64.17;102369.75;5090570;28;20037;-69
2022/03/15 10:06:14;;;;;;;27.45;6.65;;;;;;;10.56;63.86;102374.09;5091250;28;20036;-69
2022/03/15 10:08:43;;;;;;;12.82;6.10;;;;;;;10.63;63.52;102368.78;5091377;28;20036;-70
2022/03/15 10:11:12;;;;;;;17.52;11.27;;;;;;;10.70;63.63;102371.34;5092001;28;20561;-69
2022/03/15 10:13:43;;;;;;;17.33;8.75;;;;;;;10.78;63.43;102378.38;5091155;28;20421;-69
2022/03/15 10:16:13;;;;;;;19.38;8.00;;;;;;;10.82;62.89;102372.16;5091274;28;20056;-69
2022/03/15 10:18:53;;;;;;;11.88;8.25;;;;;;;10.83;61.60;102368.66;5090682;28;20055;-70
2022/03/15 10:21:24;;;;;;;14.30;7.15;;;;;;;10.83;61.70;102366.91;5091560;28;20745;-69
2022/03/15 10:23:58;;;;;;;14.18;6.00;;;;;;;10.87;62.04;102371.25;5091659;28;20563;-70
2022/03/15 10:26:27;;;;;;;16.23;6.43;;;;;;;10.92;62.07;102367.72;5091147;28;20578;-69
2022/03/15 10:28:56;;;;;;;10.38;5.05;;;;;;;10.97;61.88;102360.63;5091045;28;20040;-69
2022/03/15 10:31:24;;;;;;;13.07;6.00;;;;;;;11.05;61.65;102365.84;5094441;28;20493;-70
2022/03/15 10:33:54;;;;;;;12.98;5.90;;;;;;;11.14;61.58;102363.13;5095206;28;20044;-69
2022/03/15 10:36:22;;;;;;;23.50;6.97;;;;;;;11.20;61.47;102363.06;5095168;28;20758;-69
2022/03/15 10:38:51;;;;;;;9.88;4.65;;;;;;;11.27;60.95;102356.88;5093703;28;20500;-69
2022/03/15 10:41:20;;;;;;;16.33;5.05;;;;;;;11.34;61.23;102358.56;5094709;28;20037;-70
2022/03/15 10:43:54;;;;;;;11.63;5.00;;;;;;;11.42;61.06;102362.88;5094421;28;20032;-69
2022/03/15 10:46:26;;;;;;;11.30;5.37;;;;;;;11.48;60.79;102354.91;5094869;28;20855;-70
2022/03/15 10:49:03;;;;;;;10.70;4.85;;;;;;;11.56;60.39;102352.19;5092416;28;20336;-70
2022/03/15 10:51:30;;;;;;;8.85;4.13;;;;;;;11.59;59.71;102341.59;5094480;28;20036;-70
2022/03/15 10:54:04;;;;;;;44.15;8.48;;;;;;;11.61;59.24;102347.72;5094763;28;20033;-69
2022/03/15 10:56:31;;;;;;;11.88;4.90;;;;;;;11.63;59.64;102335.38;5088013;28;20041;-70
2022/03/15 10:59:04;;;;;;;19.35;5.80;;;;;;;11.69;59.40;102337.09;5094345;28;20047;-70
2022/03/15 11:01:40;;;;;;;23.63;5.50;;;;;;;11.74;59.14;102338.78;5094947;28;20041;-70
2022/03/15 11:04:10;;;;;;;;;;;;;;;11.79;59.31;102338.75;5095335;28;20052;-69
2022/03/15 11:06:44;;;;;;;18.13;5.75;;;;;;;11.86;58.14;102332.47;5093840;28;19928;-70
2022/03/15 11:09:35;;;;;;;16.55;5.45;;;;;;;11.86;59.10;102328.94;5094079;28;20040;-71
2022/03/15 11:12:07;;;;;;;15.15;5.05;;;;;;;11.94;59.21;102324.47;5094593;28;20037;-70
2022/03/15 11:14:47;;;;;;;12.15;4.85;;;;;;;12.02;59.33;102327.03;5094205;28;20045;-70
2022/03/15 11:17:24;;;;;;;9.80;4.78;;;;;;;12.09;59.15;102326.94;5094464;28;20045;-69
2022/03/15 11:19:54;;;;;;;17.73;5.28;;;;;;;12.19;59.24;102316.22;5094786;28;20044;-70
2022/03/15 11:22:28;;;;;;;19.77;5.10;;;;;;;12.27;58.94;102314.34;5095085;28;20070;-70
2022/03/15 11:25:17;;;;;;;17.02;4.63;;;;;;;12.35;57.78;102308.97;5094129;28;20044;-72
2022/03/15 11:27:51;;;;;;;10.98;4.55;;;;;;;12.42;58.05;102310.63;5086566;28;20056;-71
2022/03/15 11:30:20;;;;;;;10.10;4.60;;;;;;;12.49;58.07;102307.00;5094386;28;20104;-71